sensor_id;sensor_type;location;lat;lon;timestamp;pressure;altitude;pressure_sealevel;temperature;humidity
33859;BME280;20156;47.486;12.074;2022-09-09T00:02:22;92354.66;;;14.68;100.00
33859;BME280;20156;47.486;12.074;2022-09-09T00:05:04;92347.16;;;14.75;100.00
33859;BME280;20156;47.486;12.074;2022-09-09T00:07:45;92378.53;;;14.67;100.00
33859;BME280;20156;47.486;12.074;2022-09-09T00:13:04;92369.34;;;14.56;100.00
33859;BME280;20156;47.486;12.074;2022-09-09T00:15:46;92346.47;;;14.61;100.00
33859;BME280;20156;47.486;12.074;2022-09-09T00:21:18;92348.19;;;14.66;100.00
33859;BME280;20156;47.486;12.074;2022-09-09T00:23:55;92332.41;;;14.49;100.00
33859;BME280;20156;47.486;12.074;2022-09-09T00:26:42;92274.69;;;14.45;100.00
33859;BME280;20156;47.486;12.074;2022-09-09T00:32:11;92220.06;;;14.52;100.00
33859;BME280;20156;47.486;12.074;2022-09-09T00:34:42;92207.47;;;14.54;100.00
33859;BME280;20156;47.486;12.074;2022-09-09T00:37:09;92212.22;;;14.52;100.00
33859;BME280;20156;47.486;12.074;2022-09-09T00:39:38;92204.41;;;14.61;100.00
33859;BME280;20156;47.486;12.074;2022-09-09T00:42:14;92218.75;;;14.63;100.00
33859;BME280;20156;47.486;12.074;2022-09-09T00:47:51;92222.44;;;14.71;100.00
33859;BME280;20156;47.486;12.074;2022-09-09T00:58:07;92288.41;;;14.82;100.00
33859;BME280;20156;47.486;12.074;2022-09-09T01:00:44;92268.56;;;14.89;100.00
33859;BME280;20156;47.486;12.074;2022-09-09T01:09:29;92263.75;;;14.83;100.00
33859;BME280;20156;47.486;12.074;2022-09-09T01:14:42;92314.25;;;14.52;100.00
33859;BME280;20156;47.486;12.074;2022-09-09T01:17:23;92328.03;;;14.66;100.00
33859;BME280;20156;47.486;12.074;2022-09-09T01:27:35;92533.84;;;14.85;100.00
33859;BME280;20156;47.486;12.074;2022-09-09T01:30:12;92537.72;;;14.73;100.00
33859;BME280;20156;47.486;12.074;2022-09-09T01:32:48;92487.47;;;14.63;100.00
33859;BME280;20156;47.486;12.074;2022-09-09T01:37:52;92351.66;;;14.53;100.00
33859;BME280;20156;47.486;12.074;2022-09-09T01:40:17;92293.66;;;14.59;100.00
33859;BME280;20156;47.486;12.074;2022-09-09T01:42:43;92248.00;;;14.65;100.00
33859;BME280;20156;47.486;12.074;2022-09-09T01:45:08;92232.00;;;14.75;100.00
33859;BME280;20156;47.486;12.074;2022-09-09T01:47:35;92220.66;;;14.89;100.00
33859;BME280;20156;47.486;12.074;2022-09-09T01:50:01;92223.81;;;15.25;100.00
33859;BME280;20156;47.486;12.074;2022-09-09T01:52:28;92290.16;;;15.03;100.00
33859;BME280;20156;47.486;12.074;2022-09-09T01:54:54;92318.41;;;14.84;100.00
33859;BME280;20156;47.486;12.074;2022-09-09T01:57:27;92322.84;;;14.75;100.00
33859;BME280;20156;47.486;12.074;2022-09-09T02:00:10;92287.25;;;14.74;100.00
33859;BME280;20156;47.486;12.074;2022-09-09T02:07:48;92392.09;;;14.69;100.00
33859;BME280;20156;47.486;12.074;2022-09-09T02:10:19;92400.28;;;14.76;100.00
33859;BME280;20156;47.486;12.074;2022-09-09T02:12:48;92372.53;;;14.97;100.00
33859;BME280;20156;47.486;12.074;2022-09-09T02:18:08;92449.59;;;14.83;100.00
33859;BME280;20156;47.486;12.074;2022-09-09T02:20:37;92415.75;;;14.86;100.00
33859;BME280;20156;47.486;12.074;2022-09-09T02:23:05;92404.81;;;14.84;100.00
33859;BME280;20156;47.486;12.074;2022-09-09T02:25:35;92381.84;;;14.81;100.00
33859;BME280;20156;47.486;12.074;2022-09-09T02:28:04;92359.38;;;14.80;100.00
33859;BME280;20156;47.486;12.074;2022-09-09T02:30:33;92376.84;;;14.71;100.00
33859;BME280;20156;47.486;12.074;2022-09-09T02:33:01;92360.97;;;14.67;100.00
33859;BME280;20156;47.486;12.074;2022-09-09T02:35:30;92327.00;;;14.76;100.00
33859;BME280;20156;47.486;12.074;2022-09-09T02:38:04;92298.31;;;15.02;100.00
33859;BME280;20156;47.486;12.074;2022-09-09T02:40:30;92317.94;;;15.22;100.00
33859;BME280;20156;47.486;12.074;2022-09-09T02:42:55;92382.00;;;14.85;100.00
33859;BME280;20156;47.486;12.074;2022-09-09T02:45:26;92360.84;;;14.72;100.00
33859;BME280;20156;47.486;12.074;2022-09-09T02:48:28;92344.56;;;14.53;100.00
33859;BME280;20156;47.486;12.074;2022-09-09T02:51:32;92302.78;;;14.62;100.00
33859;BME280;20156;47.486;12.074;2022-09-09T02:56:29;92223.78;;;14.99;100.00
33859;BME280;20156;47.486;12.074;2022-09-09T02:58:58;92229.09;;;14.77;100.00
33859;BME280;20156;47.486;12.074;2022-09-09T03:01:23;92220.41;;;14.59;100.00
33859;BME280;20156;47.486;12.074;2022-09-09T03:03:49;92196.38;;;14.57;100.00
33859;BME280;20156;47.486;12.074;2022-09-09T03:06:14;92147.38;;;14.89;100.00
33859;BME280;20156;47.486;12.074;2022-09-09T03:08:40;92134.28;;;14.89;100.00
33859;BME280;20156;47.486;12.074;2022-09-09T03:11:06;92168.56;;;14.70;100.00
33859;BME280;20156;47.486;12.074;2022-09-09T03:13:32;92166.09;;;14.65;100.00
33859;BME280;20156;47.486;12.074;2022-09-09T03:15:58;92155.75;;;14.60;100.00
33859;BME280;20156;47.486;12.074;2022-09-09T03:18:25;92141.06;;;14.41;100.00
33859;BME280;20156;47.486;12.074;2022-09-09T03:20:50;92104.53;;;14.67;100.00
33859;BME280;20156;47.486;12.074;2022-09-09T03:23:16;92136.88;;;14.32;100.00
33859;BME280;20156;47.486;12.074;2022-09-09T03:25:48;92134.38;;;14.27;100.00
33859;BME280;20156;47.486;12.074;2022-09-09T03:28:14;92116.91;;;14.36;100.00
33859;BME280;20156;47.486;12.074;2022-09-09T03:30:40;92107.75;;;14.47;100.00
33859;BME280;20156;47.486;12.074;2022-09-09T03:33:06;92148.22;;;14.19;100.00
33859;BME280;20156;47.486;12.074;2022-09-09T03:35:31;92168.28;;;14.01;100.00
33859;BME280;20156;47.486;12.074;2022-09-09T03:37:56;92149.13;;;14.14;100.00
33859;BME280;20156;47.486;12.074;2022-09-09T03:40:22;92152.38;;;14.20;100.00
33859;BME280;20156;47.486;12.074;2022-09-09T03:42:47;92122.69;;;14.24;100.00
33859;BME280;20156;47.486;12.074;2022-09-09T03:45:14;92124.22;;;14.17;100.00
33859;BME280;20156;47.486;12.074;2022-09-09T03:47:39;92144.78;;;14.09;100.00
33859;BME280;20156;47.486;12.074;2022-09-09T03:50:06;92130.88;;;14.31;100.00
33859;BME280;20156;47.486;12.074;2022-09-09T03:52:37;92150.84;;;14.27;100.00
33859;BME280;20156;47.486;12.074;2022-09-09T03:55:03;92163.75;;;14.24;100.00
33859;BME280;20156;47.486;12.074;2022-09-09T03:57:29;92140.75;;;14.34;100.00
33859;BME280;20156;47.486;12.074;2022-09-09T03:59:55;92113.50;;;14.35;100.00
33859;BME280;20156;47.486;12.074;2022-09-09T04:02:20;92082.44;;;14.42;100.00
33859;BME280;20156;47.486;12.074;2022-09-09T04:04:46;92042.50;;;14.68;100.00
33859;BME280;20156;47.486;12.074;2022-09-09T04:07:12;92042.50;;;14.59;100.00
33859;BME280;20156;47.486;12.074;2022-09-09T04:09:37;92057.84;;;14.43;100.00
33859;BME280;20156;47.486;12.074;2022-09-09T04:12:03;92051.22;;;14.37;100.00
33859;BME280;20156;47.486;12.074;2022-09-09T04:14:29;92024.94;;;14.60;100.00
33859;BME280;20156;47.486;12.074;2022-09-09T04:16:55;92057.81;;;14.35;100.00
33859;BME280;20156;47.486;12.074;2022-09-09T04:19:22;92037.97;;;14.34;100.00
33859;BME280;20156;47.486;12.074;2022-09-09T04:21:48;92023.25;;;14.47;100.00
33859;BME280;20156;47.486;12.074;2022-09-09T04:24:16;92023.84;;;14.43;100.00
33859;BME280;20156;47.486;12.074;2022-09-09T04:26:42;92022.28;;;14.42;100.00
33859;BME280;20156;47.486;12.074;2022-09-09T04:29:07;92029.28;;;14.73;100.00
33859;BME280;20156;47.486;12.074;2022-09-09T04:31:33;92070.69;;;14.62;100.00
33859;BME280;20156;47.486;12.074;2022-09-09T04:33:59;92069.91;;;14.62;100.00
33859;BME280;20156;47.486;12.074;2022-09-09T04:36:30;92073.56;;;14.43;100.00
33859;BME280;20156;47.486;12.074;2022-09-09T04:38:56;92042.81;;;14.66;100.00
33859;BME280;20156;47.486;12.074;2022-09-09T04:41:22;92040.97;;;14.67;100.00
33859;BME280;20156;47.486;12.074;2022-09-09T04:43:47;92041.38;;;14.43;100.00
33859;BME280;20156;47.486;12.074;2022-09-09T04:46:13;92008.16;;;14.43;100.00
33859;BME280;20156;47.486;12.074;2022-09-09T04:48:38;91987.06;;;14.40;100.00
33859;BME280;20156;47.486;12.074;2022-09-09T04:51:06;91961.66;;;14.40;100.00
33859;BME280;20156;47.486;12.074;2022-09-09T04:53:32;91946.16;;;14.44;100.00
33859;BME280;20156;47.486;12.074;2022-09-09T04:58:31;91938.50;;;14.48;100.00
33859;BME280;20156;47.486;12.074;2022-09-09T05:01:07;91924.63;;;14.64;100.00
33859;BME280;20156;47.486;12.074;2022-09-09T05:03:33;91948.63;;;14.49;100.00
33859;BME280;20156;47.486;12.074;2022-09-09T05:06:19;91963.38;;;14.28;100.00
33859;BME280;20156;47.486;12.074;2022-09-09T05:08:45;91971.50;;;14.26;100.00
33859;BME280;20156;47.486;12.074;2022-09-09T05:13:43;91937.56;;;14.52;100.00
33859;BME280;20156;47.486;12.074;2022-09-09T05:16:09;91949.56;;;14.62;100.00
33859;BME280;20156;47.486;12.074;2022-09-09T05:18:39;91948.31;;;14.59;100.00
33859;BME280;20156;47.486;12.074;2022-09-09T05:21:06;91984.91;;;14.42;100.00
33859;BME280;20156;47.486;12.074;2022-09-09T05:23:32;91984.91;;;14.33;100.00
33859;BME280;20156;47.486;12.074;2022-09-09T05:25:59;91981.38;;;14.29;100.00
33859;BME280;20156;47.486;12.074;2022-09-09T05:28:26;91986.19;;;14.44;100.00
33859;BME280;20156;47.486;12.074;2022-09-09T05:30:58;91957.25;;;14.58;100.00
33859;BME280;20156;47.486;12.074;2022-09-09T05:33:24;91961.88;;;14.53;100.00
33859;BME280;20156;47.486;12.074;2022-09-09T05:36:01;91949.81;;;14.43;100.00
33859;BME280;20156;47.486;12.074;2022-09-09T05:38:28;91926.81;;;14.45;100.00
33859;BME280;20156;47.486;12.074;2022-09-09T05:40:54;91844.44;;;15.07;100.00
33859;BME280;20156;47.486;12.074;2022-09-09T05:43:22;91886.22;;;15.41;100.00
33859;BME280;20156;47.486;12.074;2022-09-09T05:45:48;91958.31;;;15.47;100.00
33859;BME280;20156;47.486;12.074;2022-09-09T05:48:16;92020.69;;;15.54;100.00
33859;BME280;20156;47.486;12.074;2022-09-09T05:50:42;92085.00;;;15.34;100.00
33859;BME280;20156;47.486;12.074;2022-09-09T05:53:08;92106.56;;;15.48;100.00
33859;BME280;20156;47.486;12.074;2022-09-09T05:55:35;92100.97;;;15.76;100.00
33859;BME280;20156;47.486;12.074;2022-09-09T05:58:00;92150.34;;;15.74;100.00
33859;BME280;20156;47.486;12.074;2022-09-09T06:00:26;92180.69;;;15.92;100.00
33859;BME280;20156;47.486;12.074;2022-09-09T06:02:52;92201.47;;;16.06;100.00
33859;BME280;20156;47.486;12.074;2022-09-09T06:05:19;92271.53;;;15.79;100.00
33859;BME280;20156;47.486;12.074;2022-09-09T06:07:44;92276.94;;;16.00;100.00
33859;BME280;20156;47.486;12.074;2022-09-09T06:10:11;92276.31;;;15.94;100.00
33859;BME280;20156;47.486;12.074;2022-09-09T06:12:39;92273.38;;;16.13;100.00
33859;BME280;20156;47.486;12.074;2022-09-09T06:15:04;92273.34;;;16.31;100.00
33859;BME280;20156;47.486;12.074;2022-09-09T06:17:30;92302.19;;;16.39;100.00
33859;BME280;20156;47.486;12.074;2022-09-09T06:19:55;92426.44;;;15.60;100.00
33859;BME280;20156;47.486;12.074;2022-09-09T06:22:21;92421.00;;;15.17;100.00
33859;BME280;20156;47.486;12.074;2022-09-09T06:24:46;92356.38;;;14.95;100.00
33859;BME280;20156;47.486;12.074;2022-09-09T06:27:12;92304.91;;;14.91;100.00
33859;BME280;20156;47.486;12.074;2022-09-09T06:29:39;92245.00;;;14.89;100.00
33859;BME280;20156;47.486;12.074;2022-09-09T06:32:04;92196.78;;;14.82;100.00
33859;BME280;20156;47.486;12.074;2022-09-09T06:34:30;92151.25;;;15.00;100.00
33859;BME280;20156;47.486;12.074;2022-09-09T06:36:55;92114.28;;;15.19;100.00
33859;BME280;20156;47.486;12.074;2022-09-09T06:39:23;92107.50;;;15.35;100.00
33859;BME280;20156;47.486;12.074;2022-09-09T06:41:48;92133.22;;;15.24;100.00
33859;BME280;20156;47.486;12.074;2022-09-09T06:44:14;92157.22;;;14.92;100.00
33859;BME280;20156;47.486;12.074;2022-09-09T06:46:41;92141.81;;;14.82;100.00
33859;BME280;20156;47.486;12.074;2022-09-09T06:49:08;92127.78;;;14.78;100.00
33859;BME280;20156;47.486;12.074;2022-09-09T06:51:34;92123.34;;;14.78;100.00
33859;BME280;20156;47.486;12.074;2022-09-09T06:54:01;92110.09;;;14.74;100.00
33859;BME280;20156;47.486;12.074;2022-09-09T06:56:32;92085.31;;;14.72;100.00
33859;BME280;20156;47.486;12.074;2022-09-09T06:59:01;92056.69;;;14.84;100.00
33859;BME280;20156;47.486;12.074;2022-09-09T07:01:30;92065.28;;;14.76;100.00
33859;BME280;20156;47.486;12.074;2022-09-09T07:03:57;92074.06;;;14.71;100.00
33859;BME280;20156;47.486;12.074;2022-09-09T07:06:29;92059.63;;;15.00;100.00
33859;BME280;20156;47.486;12.074;2022-09-09T07:09:09;92087.00;;;15.11;100.00
33859;BME280;20156;47.486;12.074;2022-09-09T07:11:43;92090.69;;;15.71;100.00
33859;BME280;20156;47.486;12.074;2022-09-09T07:14:09;92148.94;;;15.85;100.00
33859;BME280;20156;47.486;12.074;2022-09-09T07:16:37;92223.72;;;15.74;100.00
33859;BME280;20156;47.486;12.074;2022-09-09T07:19:03;92290.19;;;15.69;100.00
33859;BME280;20156;47.486;12.074;2022-09-09T07:21:30;92325.19;;;15.73;100.00
33859;BME280;20156;47.486;12.074;2022-09-09T07:23:56;92353.75;;;15.83;100.00
33859;BME280;20156;47.486;12.074;2022-09-09T07:26:24;92433.31;;;15.17;100.00
33859;BME280;20156;47.486;12.074;2022-09-09T07:28:50;92397.66;;;15.29;100.00
33859;BME280;20156;47.486;12.074;2022-09-09T07:31:21;92438.16;;;15.01;100.00
33859;BME280;20156;47.486;12.074;2022-09-09T07:33:47;92428.94;;;15.03;100.00
33859;BME280;20156;47.486;12.074;2022-09-09T07:36:34;92412.41;;;15.25;100.00
33859;BME280;20156;47.486;12.074;2022-09-09T07:39:03;92398.72;;;15.28;100.00
33859;BME280;20156;47.486;12.074;2022-09-09T07:43:57;92356.66;;;15.33;100.00
33859;BME280;20156;47.486;12.074;2022-09-09T07:46:25;92375.94;;;15.38;100.00
33859;BME280;20156;47.486;12.074;2022-09-09T07:48:53;92371.00;;;15.36;100.00
33859;BME280;20156;47.486;12.074;2022-09-09T07:51:25;92349.44;;;15.39;100.00
33859;BME280;20156;47.486;12.074;2022-09-09T07:53:54;92331.25;;;15.34;100.00
33859;BME280;20156;47.486;12.074;2022-09-09T07:56:19;92311.38;;;15.33;100.00
33859;BME280;20156;47.486;12.074;2022-09-09T07:58:49;92287.34;;;15.40;100.00
33859;BME280;20156;47.486;12.074;2022-09-09T08:01:18;92311.06;;;15.43;100.00
33859;BME280;20156;47.486;12.074;2022-09-09T08:03:46;92336.38;;;15.48;100.00
33859;BME280;20156;47.486;12.074;2022-09-09T08:06:12;92389.84;;;15.47;100.00
33859;BME280;20156;47.486;12.074;2022-09-09T08:08:39;92415.69;;;15.40;100.00
33859;BME280;20156;47.486;12.074;2022-09-09T08:11:14;92363.00;;;16.07;100.00
33859;BME280;20156;47.486;12.074;2022-09-09T08:13:41;92411.34;;;16.49;100.00
33859;BME280;20156;47.486;12.074;2022-09-09T08:16:14;92480.84;;;16.77;100.00
33859;BME280;20156;47.486;12.074;2022-09-09T08:18:40;92547.13;;;17.00;100.00
33859;BME280;20156;47.486;12.074;2022-09-09T08:23:38;92730.19;;;16.29;100.00
33859;BME280;20156;47.486;12.074;2022-09-09T08:26:13;92727.72;;;16.02;100.00
33859;BME280;20156;47.486;12.074;2022-09-09T08:28:40;92657.31;;;15.95;100.00
33859;BME280;20156;47.486;12.074;2022-09-09T08:31:07;92600.34;;;15.87;100.00
33859;BME280;20156;47.486;12.074;2022-09-09T08:33:33;92545.34;;;16.04;100.00
33859;BME280;20156;47.486;12.074;2022-09-09T08:35:58;92530.41;;;16.05;100.00
33859;BME280;20156;47.486;12.074;2022-09-09T08:38:24;92525.91;;;15.97;100.00
33859;BME280;20156;47.486;12.074;2022-09-09T08:40:50;92538.81;;;15.93;100.00
33859;BME280;20156;47.486;12.074;2022-09-09T08:43:20;92519.28;;;15.99;100.00
33859;BME280;20156;47.486;12.074;2022-09-09T08:45:57;92561.41;;;15.72;100.00
33859;BME280;20156;47.486;12.074;2022-09-09T08:51:10;92485.19;;;15.99;100.00
33859;BME280;20156;47.486;12.074;2022-09-09T08:53:48;92463.28;;;16.12;100.00
33859;BME280;20156;47.486;12.074;2022-09-09T08:56:17;92464.38;;;16.11;100.00
33859;BME280;20156;47.486;12.074;2022-09-09T08:58:47;92467.91;;;16.07;100.00
33859;BME280;20156;47.486;12.074;2022-09-09T09:01:20;92454.19;;;16.01;100.00
33859;BME280;20156;47.486;12.074;2022-09-09T09:06:59;92400.81;;;16.23;100.00
33859;BME280;20156;47.486;12.074;2022-09-09T09:12:05;92385.25;;;16.52;100.00
33859;BME280;20156;47.486;12.074;2022-09-09T09:14:35;92404.38;;;16.44;100.00
33859;BME280;20156;47.486;12.074;2022-09-09T09:17:06;92404.69;;;16.34;100.00
33859;BME280;20156;47.486;12.074;2022-09-09T09:19:38;92407.78;;;16.36;100.00
33859;BME280;20156;47.486;12.074;2022-09-09T09:25:05;92485.97;;;16.08;100.00
33859;BME280;20156;47.486;12.074;2022-09-09T09:27:39;92467.34;;;16.18;100.00
33859;BME280;20156;47.486;12.074;2022-09-09T09:30:15;92428.31;;;16.34;100.00
33859;BME280;20156;47.486;12.074;2022-09-09T09:32:45;92441.06;;;16.10;100.00
33859;BME280;20156;47.486;12.074;2022-09-09T09:35:13;92477.16;;;16.04;100.00
33859;BME280;20156;47.486;12.074;2022-09-09T09:37:40;92484.94;;;16.18;100.00
33859;BME280;20156;47.486;12.074;2022-09-09T09:40:17;92488.16;;;16.15;100.00
33859;BME280;20156;47.486;12.074;2022-09-09T09:43:00;92529.00;;;16.07;100.00
33859;BME280;20156;47.486;12.074;2022-09-09T09:48:04;92535.13;;;16.34;100.00
33859;BME280;20156;47.486;12.074;2022-09-09T09:50:31;92533.38;;;16.29;100.00
33859;BME280;20156;47.486;12.074;2022-09-09T09:52:59;92516.91;;;16.37;100.00
33859;BME280;20156;47.486;12.074;2022-09-09T09:55:26;92472.59;;;16.44;100.00
33859;BME280;20156;47.486;12.074;2022-09-09T09:58:01;92459.50;;;16.53;100.00
33859;BME280;20156;47.486;12.074;2022-09-09T10:00:27;92483.75;;;16.59;100.00
33859;BME280;20156;47.486;12.074;2022-09-09T10:02:52;92491.78;;;16.53;100.00
33859;BME280;20156;47.486;12.074;2022-09-09T10:05:23;92502.44;;;16.66;100.00
33859;BME280;20156;47.486;12.074;2022-09-09T10:08:12;92499.22;;;16.69;100.00
33859;BME280;20156;47.486;12.074;2022-09-09T10:11:02;92502.41;;;16.57;100.00
33859;BME280;20156;47.486;12.074;2022-09-09T10:13:47;92482.88;;;16.80;100.00
33859;BME280;20156;47.486;12.074;2022-09-09T10:19:37;92528.53;;;16.53;100.00
33859;BME280;20156;47.486;12.074;2022-09-09T10:27:17;92460.72;;;16.38;100.00
33859;BME280;20156;47.486;12.074;2022-09-09T10:30:14;92439.56;;;16.43;100.00
33859;BME280;20156;47.486;12.074;2022-09-09T10:32:49;92421.66;;;16.45;100.00
33859;BME280;20156;47.486;12.074;2022-09-09T10:35:44;92418.75;;;16.38;100.00
33859;BME280;20156;47.486;12.074;2022-09-09T10:48:47;92385.09;;;16.40;100.00
33859;BME280;20156;47.486;12.074;2022-09-09T10:51:36;92479.41;;;16.37;100.00
33859;BME280;20156;47.486;12.074;2022-09-09T10:57:36;92425.53;;;16.65;100.00
33859;BME280;20156;47.486;12.074;2022-09-09T11:00:13;92387.38;;;16.59;100.00
33859;BME280;20156;47.486;12.074;2022-09-09T11:02:41;92350.34;;;16.52;100.00
33859;BME280;20156;47.486;12.074;2022-09-09T11:05:42;92279.31;;;16.57;100.00
33859;BME280;20156;47.486;12.074;2022-09-09T11:08:21;92287.03;;;16.45;100.00
33859;BME280;20156;47.486;12.074;2022-09-09T11:21:58;92306.00;;;16.85;100.00
33859;BME280;20156;47.486;12.074;2022-09-09T11:27:10;92401.91;;;16.65;100.00
33859;BME280;20156;47.486;12.074;2022-09-09T11:38:21;92603.03;;;16.92;100.00
33859;BME280;20156;47.486;12.074;2022-09-09T11:40:47;92596.25;;;17.08;100.00
33859;BME280;20156;47.486;12.074;2022-09-09T11:43:27;92643.34;;;16.79;100.00
33859;BME280;20156;47.486;12.074;2022-09-09T11:45:58;92668.16;;;16.64;100.00
33859;BME280;20156;47.486;12.074;2022-09-09T11:48:40;92574.63;;;17.20;100.00
33859;BME280;20156;47.486;12.074;2022-09-09T11:53:57;92687.91;;;17.01;100.00
33859;BME280;20156;47.486;12.074;2022-09-09T11:56:42;92778.63;;;16.68;100.00
33859;BME280;20156;47.486;12.074;2022-09-09T12:01:50;92816.78;;;17.05;100.00
33859;BME280;20156;47.486;12.074;2022-09-09T12:06:56;92932.09;;;17.06;100.00
33859;BME280;20156;47.486;12.074;2022-09-09T12:09:52;92947.72;;;17.11;100.00
33859;BME280;20156;47.486;12.074;2022-09-09T12:12:35;92931.66;;;17.13;100.00
33859;BME280;20156;47.486;12.074;2022-09-09T12:20:19;92958.00;;;17.22;100.00
33859;BME280;20156;47.486;12.074;2022-09-09T12:31:16;92846.38;;;17.19;100.00
33859;BME280;20156;47.486;12.074;2022-09-09T12:33:45;92819.13;;;17.06;100.00
33859;BME280;20156;47.486;12.074;2022-09-09T12:36:15;92763.03;;;17.11;100.00
33859;BME280;20156;47.486;12.074;2022-09-09T12:38:43;92743.09;;;17.10;100.00
33859;BME280;20156;47.486;12.074;2022-09-09T12:41:23;92709.25;;;17.08;100.00
33859;BME280;20156;47.486;12.074;2022-09-09T12:43:49;92673.22;;;17.09;100.00
33859;BME280;20156;47.486;12.074;2022-09-09T12:46:39;92612.50;;;17.10;100.00
33859;BME280;20156;47.486;12.074;2022-09-09T12:51:55;92566.59;;;17.08;100.00
33859;BME280;20156;47.486;12.074;2022-09-09T12:54:22;92563.34;;;17.02;100.00
33859;BME280;20156;47.486;12.074;2022-09-09T12:56:49;92586.81;;;16.81;100.00
33859;BME280;20156;47.486;12.074;2022-09-09T12:59:36;92517.75;;;17.07;100.00
33859;BME280;20156;47.486;12.074;2022-09-09T13:02:02;92494.44;;;17.05;100.00
33859;BME280;20156;47.486;12.074;2022-09-09T13:04:27;92511.75;;;16.98;100.00
33859;BME280;20156;47.486;12.074;2022-09-09T13:06:53;92524.72;;;17.20;100.00
33859;BME280;20156;47.486;12.074;2022-09-09T13:09:19;92554.06;;;17.39;100.00
33859;BME280;20156;47.486;12.074;2022-09-09T13:11:56;92574.03;;;17.32;100.00
33859;BME280;20156;47.486;12.074;2022-09-09T13:14:30;92574.63;;;17.29;100.00
33859;BME280;20156;47.486;12.074;2022-09-09T13:17:02;92611.72;;;17.10;100.00
33859;BME280;20156;47.486;12.074;2022-09-09T13:19:35;92646.31;;;16.95;100.00
33859;BME280;20156;47.486;12.074;2022-09-09T13:22:19;92680.94;;;17.05;100.00
33859;BME280;20156;47.486;12.074;2022-09-09T13:24:45;92776.91;;;17.03;100.00
33859;BME280;20156;47.486;12.074;2022-09-09T13:27:41;92879.09;;;16.82;100.00
33859;BME280;20156;47.486;12.074;2022-09-09T13:30:39;92845.03;;;17.30;100.00
33859;BME280;20156;47.486;12.074;2022-09-09T13:35:35;92715.50;;;17.38;100.00
33859;BME280;20156;47.486;12.074;2022-09-09T13:38:10;92721.66;;;17.42;100.00
33859;BME280;20156;47.486;12.074;2022-09-09T13:40:35;92840.75;;;17.03;100.00
33859;BME280;20156;47.486;12.074;2022-09-09T13:43:02;92816.44;;;17.37;100.00
33859;BME280;20156;47.486;12.074;2022-09-09T13:45:28;92768.09;;;17.56;100.00
33859;BME280;20156;47.486;12.074;2022-09-09T13:47:54;92712.44;;;17.88;100.00
33859;BME280;20156;47.486;12.074;2022-09-09T13:50:27;92685.06;;;17.89;100.00
33859;BME280;20156;47.486;12.074;2022-09-09T13:52:54;92751.41;;;17.03;100.00
33859;BME280;20156;47.486;12.074;2022-09-09T13:55:22;92711.81;;;16.91;100.00
33859;BME280;20156;47.486;12.074;2022-09-09T13:57:52;92671.50;;;16.96;100.00
33859;BME280;20156;47.486;12.074;2022-09-09T14:00:18;92647.09;;;17.04;100.00
33859;BME280;20156;47.486;12.074;2022-09-09T14:02:43;92649.16;;;17.33;100.00
33859;BME280;20156;47.486;12.074;2022-09-09T14:05:09;92649.16;;;17.50;100.00
33859;BME280;20156;47.486;12.074;2022-09-09T14:07:36;92715.50;;;17.47;100.00
33859;BME280;20156;47.486;12.074;2022-09-09T14:10:03;92796.69;;;17.00;100.00
33859;BME280;20156;47.486;12.074;2022-09-09T14:12:30;92730.66;;;17.59;100.00
33859;BME280;20156;47.486;12.074;2022-09-09T14:14:55;92812.78;;;17.07;100.00
33859;BME280;20156;47.486;12.074;2022-09-09T14:17:20;92872.69;;;16.74;100.00
33859;BME280;20156;47.486;12.074;2022-09-09T14:19:47;92867.69;;;16.64;100.00
33859;BME280;20156;47.486;12.074;2022-09-09T14:22:12;92848.41;;;16.91;100.00
33859;BME280;20156;47.486;12.074;2022-09-09T14:24:38;92874.25;;;16.98;100.00
33859;BME280;20156;47.486;12.074;2022-09-09T14:27:03;92885.34;;;16.95;100.00
33859;BME280;20156;47.486;12.074;2022-09-09T14:29:29;92899.75;;;16.97;100.00
33859;BME280;20156;47.486;12.074;2022-09-09T14:31:54;92883.56;;;16.81;100.00
33859;BME280;20156;47.486;12.074;2022-09-09T14:34:19;92881.47;;;16.92;100.00
33859;BME280;20156;47.486;12.074;2022-09-09T14:36:45;92904.25;;;17.05;100.00
33859;BME280;20156;47.486;12.074;2022-09-09T14:39:10;92869.50;;;17.08;100.00
33859;BME280;20156;47.486;12.074;2022-09-09T14:41:36;92861.59;;;17.31;100.00
33859;BME280;20156;47.486;12.074;2022-09-09T14:44:02;92896.94;;;17.25;100.00
33859;BME280;20156;47.486;12.074;2022-09-09T14:46:27;92906.56;;;16.98;100.00
33859;BME280;20156;47.486;12.074;2022-09-09T14:48:53;92932.63;;;16.95;100.00
33859;BME280;20156;47.486;12.074;2022-09-09T14:51:21;92901.78;;;17.31;100.00
33859;BME280;20156;47.486;12.074;2022-09-09T14:53:54;92900.88;;;17.36;100.00
33859;BME280;20156;47.486;12.074;2022-09-09T14:56:23;92896.63;;;17.57;100.00
33859;BME280;20156;47.486;12.074;2022-09-09T14:58:49;92975.03;;;17.55;100.00
33859;BME280;20156;47.486;12.074;2022-09-09T15:01:18;92972.28;;;17.60;100.00
33859;BME280;20156;47.486;12.074;2022-09-09T15:03:51;92975.38;;;17.62;100.00
33859;BME280;20156;47.486;12.074;2022-09-09T15:06:17;92970.25;;;17.57;100.00
33859;BME280;20156;47.486;12.074;2022-09-09T15:08:43;92985.41;;;17.60;100.00
33859;BME280;20156;47.486;12.074;2022-09-09T15:11:10;93001.50;;;17.81;100.00
33859;BME280;20156;47.486;12.074;2022-09-09T15:13:38;93036.84;;;17.66;100.00
33859;BME280;20156;47.486;12.074;2022-09-09T15:16:15;93019.72;;;17.78;100.00
33859;BME280;20156;47.486;12.074;2022-09-09T15:18:41;92947.22;;;17.94;100.00
33859;BME280;20156;47.486;12.074;2022-09-09T15:21:16;92870.13;;;17.93;100.00